sensor_id;sensor_type;location;lat;lon;timestamp;P1;durP1;ratioP1;P2;durP2;ratioP2
40907;SDS011;51055;59.436;24.778;2022-12-18T00:01:24;14.93;;;6.57;;
40907;SDS011;51055;59.436;24.778;2022-12-18T00:03:56;14.75;;;6.18;;
40907;SDS011;51055;59.436;24.778;2022-12-18T00:06:26;15.20;;;6.07;;
40907;SDS011;51055;59.436;24.778;2022-12-18T00:08:55;14.82;;;7.18;;
40907;SDS011;51055;59.436;24.778;2022-12-18T00:11:26;15.77;;;6.77;;
40907;SDS011;51055;59.436;24.778;2022-12-18T00:13:56;16.47;;;6.50;;
40907;SDS011;51055;59.436;24.778;2022-12-18T00:16:27;14.87;;;6.57;;
40907;SDS011;51055;59.436;24.778;2022-12-18T00:18:57;12.20;;;6.00;;
40907;SDS011;51055;59.436;24.778;2022-12-18T00:21:26;14.15;;;6.95;;
40907;SDS011;51055;59.436;24.778;2022-12-18T00:23:55;12.13;;;5.87;;
40907;SDS011;51055;59.436;24.778;2022-12-18T00:26:24;14.57;;;6.53;;
40907;SDS011;51055;59.436;24.778;2022-12-18T00:28:53;15.10;;;6.17;;
40907;SDS011;51055;59.436;24.778;2022-12-18T00:31:23;14.03;;;6.33;;
40907;SDS011;51055;59.436;24.778;2022-12-18T00:33:55;17.17;;;6.93;;
40907;SDS011;51055;59.436;24.778;2022-12-18T00:36:25;14.73;;;6.47;;
40907;SDS011;51055;59.436;24.778;2022-12-18T00:38:56;14.00;;;6.63;;
40907;SDS011;51055;59.436;24.778;2022-12-18T00:41:25;14.50;;;5.83;;
40907;SDS011;51055;59.436;24.778;2022-12-18T00:44:12;12.57;;;5.43;;
40907;SDS011;51055;59.436;24.778;2022-12-18T00:46:42;14.13;;;6.53;;
40907;SDS011;51055;59.436;24.778;2022-12-18T00:49:15;14.07;;;6.47;;
40907;SDS011;51055;59.436;24.778;2022-12-18T00:51:46;13.53;;;6.00;;
40907;SDS011;51055;59.436;24.778;2022-12-18T00:54:15;14.23;;;6.55;;
40907;SDS011;51055;59.436;24.778;2022-12-18T00:56:43;13.95;;;6.53;;
40907;SDS011;51055;59.436;24.778;2022-12-18T00:59:16;12.80;;;6.10;;
40907;SDS011;51055;59.436;24.778;2022-12-18T01:01:44;13.52;;;6.20;;
40907;SDS011;51055;59.436;24.778;2022-12-18T01:04:12;9.95;;;4.43;;
40907;SDS011;51055;59.436;24.778;2022-12-18T01:06:40;14.60;;;6.60;;
40907;SDS011;51055;59.436;24.778;2022-12-18T01:09:07;14.00;;;5.70;;
40907;SDS011;51055;59.436;24.778;2022-12-18T01:11:35;11.17;;;5.60;;
40907;SDS011;51055;59.436;24.778;2022-12-18T01:14:02;12.60;;;5.87;;
40907;SDS011;51055;59.436;24.778;2022-12-18T01:16:30;12.33;;;5.60;;
40907;SDS011;51055;59.436;24.778;2022-12-18T01:18:58;10.48;;;4.82;;
40907;SDS011;51055;59.436;24.778;2022-12-18T01:21:25;12.43;;;6.10;;
40907;SDS011;51055;59.436;24.778;2022-12-18T01:23:54;13.10;;;5.73;;
40907;SDS011;51055;59.436;24.778;2022-12-18T01:26:22;14.30;;;6.00;;
40907;SDS011;51055;59.436;24.778;2022-12-18T01:28:51;14.70;;;6.37;;
40907;SDS011;51055;59.436;24.778;2022-12-18T01:31:20;9.82;;;4.47;;
40907;SDS011;51055;59.436;24.778;2022-12-18T01:33:50;14.33;;;5.63;;
40907;SDS011;51055;59.436;24.778;2022-12-18T01:38:47;12.27;;;5.53;;
40907;SDS011;51055;59.436;24.778;2022-12-18T01:41:17;13.80;;;6.55;;
40907;SDS011;51055;59.436;24.778;2022-12-18T01:46:14;16.37;;;6.57;;
40907;SDS011;51055;59.436;24.778;2022-12-18T01:48:44;13.03;;;6.07;;
40907;SDS011;51055;59.436;24.778;2022-12-18T01:51:14;12.90;;;6.20;;
40907;SDS011;51055;59.436;24.778;2022-12-18T01:53:43;12.63;;;6.05;;
40907;SDS011;51055;59.436;24.778;2022-12-18T01:56:12;13.35;;;6.65;;
40907;SDS011;51055;59.436;24.778;2022-12-18T02:01:33;13.35;;;6.13;;
40907;SDS011;51055;59.436;24.778;2022-12-18T02:06:50;16.23;;;7.10;;
40907;SDS011;51055;59.436;24.778;2022-12-18T02:09:26;14.40;;;6.43;;
40907;SDS011;51055;59.436;24.778;2022-12-18T02:12:05;12.80;;;5.85;;
40907;SDS011;51055;59.436;24.778;2022-12-18T02:15:05;14.80;;;5.70;;
40907;SDS011;51055;59.436;24.778;2022-12-18T02:20:20;13.47;;;6.27;;
40907;SDS011;51055;59.436;24.778;2022-12-18T02:28:23;16.33;;;6.87;;
40907;SDS011;51055;59.436;24.778;2022-12-18T02:30:56;12.50;;;5.80;;
40907;SDS011;51055;59.436;24.778;2022-12-18T02:33:27;11.35;;;5.82;;
40907;SDS011;51055;59.436;24.778;2022-12-18T02:35:57;13.95;;;5.60;;
40907;SDS011;51055;59.436;24.778;2022-12-18T02:38:27;16.17;;;6.50;;
40907;SDS011;51055;59.436;24.778;2022-12-18T02:40:57;14.10;;;6.50;;
40907;SDS011;51055;59.436;24.778;2022-12-18T02:43:25;15.75;;;6.85;;
40907;SDS011;51055;59.436;24.778;2022-12-18T02:45:56;10.67;;;4.87;;
40907;SDS011;51055;59.436;24.778;2022-12-18T02:48:31;11.87;;;4.67;;
40907;SDS011;51055;59.436;24.778;2022-12-18T02:51:07;14.20;;;6.07;;
40907;SDS011;51055;59.436;24.778;2022-12-18T02:53:43;12.38;;;6.28;;
40907;SDS011;51055;59.436;24.778;2022-12-18T02:56:19;14.23;;;6.33;;
40907;SDS011;51055;59.436;24.778;2022-12-18T03:01:45;12.13;;;5.40;;
40907;SDS011;51055;59.436;24.778;2022-12-18T03:04:30;11.90;;;5.20;;
40907;SDS011;51055;59.436;24.778;2022-12-18T03:07:05;11.32;;;5.70;;
40907;SDS011;51055;59.436;24.778;2022-12-18T03:09:43;11.98;;;4.97;;
40907;SDS011;51055;59.436;24.778;2022-12-18T03:12:17;13.25;;;5.03;;
40907;SDS011;51055;59.436;24.778;2022-12-18T03:14:52;13.27;;;5.37;;
40907;SDS011;51055;59.436;24.778;2022-12-18T03:17:26;13.75;;;5.60;;
40907;SDS011;51055;59.436;24.778;2022-12-18T03:19:58;11.15;;;4.93;;
40907;SDS011;51055;59.436;24.778;2022-12-18T03:22:32;11.70;;;5.90;;
40907;SDS011;51055;59.436;24.778;2022-12-18T03:25:03;11.95;;;5.35;;
40907;SDS011;51055;59.436;24.778;2022-12-18T03:27:34;11.80;;;5.18;;
40907;SDS011;51055;59.436;24.778;2022-12-18T03:30:06;13.90;;;5.40;;
40907;SDS011;51055;59.436;24.778;2022-12-18T03:32:58;11.23;;;6.03;;
40907;SDS011;51055;59.436;24.778;2022-12-18T03:35:30;11.93;;;5.30;;
40907;SDS011;51055;59.436;24.778;2022-12-18T03:38:01;13.32;;;6.05;;
40907;SDS011;51055;59.436;24.778;2022-12-18T03:40:31;7.97;;;3.93;;
40907;SDS011;51055;59.436;24.778;2022-12-18T03:43:11;12.15;;;5.75;;
40907;SDS011;51055;59.436;24.778;2022-12-18T03:46:00;13.00;;;5.45;;
40907;SDS011;51055;59.436;24.778;2022-12-18T03:48:38;14.60;;;5.78;;
40907;SDS011;51055;59.436;24.778;2022-12-18T03:51:14;10.88;;;5.22;;
40907;SDS011;51055;59.436;24.778;2022-12-18T03:53:53;12.52;;;5.50;;
40907;SDS011;51055;59.436;24.778;2022-12-18T03:56:26;12.63;;;5.63;;
40907;SDS011;51055;59.436;24.778;2022-12-18T03:58:58;10.10;;;5.53;;
40907;SDS011;51055;59.436;24.778;2022-12-18T04:01:33;14.02;;;5.57;;
40907;SDS011;51055;59.436;24.778;2022-12-18T04:04:04;14.43;;;5.30;;
40907;SDS011;51055;59.436;24.778;2022-12-18T04:06:34;11.82;;;5.65;;
40907;SDS011;51055;59.436;24.778;2022-12-18T04:09:04;11.90;;;5.38;;
40907;SDS011;51055;59.436;24.778;2022-12-18T04:11:32;11.30;;;4.72;;
40907;SDS011;51055;59.436;24.778;2022-12-18T04:14:00;12.82;;;5.78;;
40907;SDS011;51055;59.436;24.778;2022-12-18T04:16:33;13.30;;;5.55;;
40907;SDS011;51055;59.436;24.778;2022-12-18T04:19:00;10.57;;;4.95;;
40907;SDS011;51055;59.436;24.778;2022-12-18T04:21:28;12.93;;;5.40;;
40907;SDS011;51055;59.436;24.778;2022-12-18T04:23:56;11.52;;;5.25;;
40907;SDS011;51055;59.436;24.778;2022-12-18T04:26:23;12.63;;;5.65;;
40907;SDS011;51055;59.436;24.778;2022-12-18T04:28:51;13.13;;;5.50;;
40907;SDS011;51055;59.436;24.778;2022-12-18T04:31:19;12.82;;;5.32;;
40907;SDS011;51055;59.436;24.778;2022-12-18T04:33:46;10.68;;;4.72;;
40907;SDS011;51055;59.436;24.778;2022-12-18T04:36:14;9.07;;;4.80;;
40907;SDS011;51055;59.436;24.778;2022-12-18T04:38:41;9.90;;;4.72;;
40907;SDS011;51055;59.436;24.778;2022-12-18T04:41:08;9.05;;;4.88;;
40907;SDS011;51055;59.436;24.778;2022-12-18T04:43:36;11.80;;;5.40;;
40907;SDS011;51055;59.436;24.778;2022-12-18T04:46:05;10.18;;;4.55;;
40907;SDS011;51055;59.436;24.778;2022-12-18T04:48:35;11.75;;;4.78;;
40907;SDS011;51055;59.436;24.778;2022-12-18T04:51:03;13.07;;;5.13;;
40907;SDS011;51055;59.436;24.778;2022-12-18T04:56:09;8.80;;;4.18;;
40907;SDS011;51055;59.436;24.778;2022-12-18T04:58:39;16.15;;;5.95;;
40907;SDS011;51055;59.436;24.778;2022-12-18T05:01:08;13.43;;;5.80;;
40907;SDS011;51055;59.436;24.778;2022-12-18T05:06:06;11.25;;;4.75;;
40907;SDS011;51055;59.436;24.778;2022-12-18T05:08:34;9.82;;;4.78;;
40907;SDS011;51055;59.436;24.778;2022-12-18T05:11:02;10.73;;;5.15;;
40907;SDS011;51055;59.436;24.778;2022-12-18T05:13:35;13.35;;;5.60;;
40907;SDS011;51055;59.436;24.778;2022-12-18T05:16:04;13.93;;;6.05;;
40907;SDS011;51055;59.436;24.778;2022-12-18T05:18:32;11.70;;;5.50;;
40907;SDS011;51055;59.436;24.778;2022-12-18T05:21:01;12.80;;;6.15;;
40907;SDS011;51055;59.436;24.778;2022-12-18T05:23:29;8.38;;;3.88;;
40907;SDS011;51055;59.436;24.778;2022-12-18T05:26:00;10.77;;;5.72;;
40907;SDS011;51055;59.436;24.778;2022-12-18T05:28:30;12.70;;;6.03;;
40907;SDS011;51055;59.436;24.778;2022-12-18T05:31:00;11.05;;;5.43;;
40907;SDS011;51055;59.436;24.778;2022-12-18T05:33:30;13.07;;;6.20;;
40907;SDS011;51055;59.436;24.778;2022-12-18T05:36:03;11.93;;;5.32;;
40907;SDS011;51055;59.436;24.778;2022-12-18T05:38:33;15.27;;;6.55;;
40907;SDS011;51055;59.436;24.778;2022-12-18T05:41:03;13.95;;;6.03;;
40907;SDS011;51055;59.436;24.778;2022-12-18T05:43:30;10.57;;;5.20;;
40907;SDS011;51055;59.436;24.778;2022-12-18T05:46:02;14.20;;;6.13;;
40907;SDS011;51055;59.436;24.778;2022-12-18T05:48:30;15.48;;;5.85;;
40907;SDS011;51055;59.436;24.778;2022-12-18T05:51:03;15.55;;;6.30;;
40907;SDS011;51055;59.436;24.778;2022-12-18T05:53:35;14.88;;;5.68;;
40907;SDS011;51055;59.436;24.778;2022-12-18T05:56:05;18.35;;;6.50;;
40907;SDS011;51055;59.436;24.778;2022-12-18T05:58:35;13.00;;;5.80;;
40907;SDS011;51055;59.436;24.778;2022-12-18T06:01:08;15.50;;;7.00;;
40907;SDS011;51055;59.436;24.778;2022-12-18T06:03:38;14.35;;;6.18;;
40907;SDS011;51055;59.436;24.778;2022-12-18T06:06:40;16.27;;;6.40;;
40907;SDS011;51055;59.436;24.778;2022-12-18T06:09:00;12.80;;;6.32;;
40907;SDS011;51055;59.436;24.778;2022-12-18T06:11:28;12.63;;;5.63;;
40907;SDS011;51055;59.436;24.778;2022-12-18T06:13:56;13.82;;;5.57;;
40907;SDS011;51055;59.436;24.778;2022-12-18T06:16:26;15.77;;;6.25;;
40907;SDS011;51055;59.436;24.778;2022-12-18T06:18:58;14.98;;;6.25;;
40907;SDS011;51055;59.436;24.778;2022-12-18T06:21:27;12.18;;;5.72;;
40907;SDS011;51055;59.436;24.778;2022-12-18T06:23:55;14.13;;;5.80;;
40907;SDS011;51055;59.436;24.778;2022-12-18T06:26:23;15.23;;;6.65;;
40907;SDS011;51055;59.436;24.778;2022-12-18T06:28:55;15.38;;;6.13;;
40907;SDS011;51055;59.436;24.778;2022-12-18T06:31:22;14.75;;;6.07;;
40907;SDS011;51055;59.436;24.778;2022-12-18T06:33:50;15.73;;;6.28;;
40907;SDS011;51055;59.436;24.778;2022-12-18T06:36:18;11.93;;;5.47;;
40907;SDS011;51055;59.436;24.778;2022-12-18T06:38:45;14.57;;;5.88;;
40907;SDS011;51055;59.436;24.778;2022-12-18T06:41:14;15.37;;;6.30;;
40907;SDS011;51055;59.436;24.778;2022-12-18T06:43:44;15.38;;;6.15;;
40907;SDS011;51055;59.436;24.778;2022-12-18T06:46:12;14.18;;;6.45;;
40907;SDS011;51055;59.436;24.778;2022-12-18T06:48:40;11.13;;;4.38;;
40907;SDS011;51055;59.436;24.778;2022-12-18T06:51:07;13.10;;;5.47;;
40907;SDS011;51055;59.436;24.778;2022-12-18T06:53:35;14.32;;;7.07;;
40907;SDS011;51055;59.436;24.778;2022-12-18T06:56:04;13.75;;;5.93;;
40907;SDS011;51055;59.436;24.778;2022-12-18T06:58:37;13.32;;;6.00;;
40907;SDS011;51055;59.436;24.778;2022-12-18T07:06:02;14.20;;;6.10;;
40907;SDS011;51055;59.436;24.778;2022-12-18T07:08:30;11.20;;;5.22;;
40907;SDS011;51055;59.436;24.778;2022-12-18T07:10:58;11.45;;;4.80;;
40907;SDS011;51055;59.436;24.778;2022-12-18T07:13:25;12.27;;;5.78;;
40907;SDS011;51055;59.436;24.778;2022-12-18T07:15:53;11.48;;;4.88;;
40907;SDS011;51055;59.436;24.778;2022-12-18T07:18:21;10.67;;;4.53;;
40907;SDS011;51055;59.436;24.778;2022-12-18T07:20:49;9.20;;;4.53;;
40907;SDS011;51055;59.436;24.778;2022-12-18T07:23:17;14.75;;;5.57;;
40907;SDS011;51055;59.436;24.778;2022-12-18T07:25:44;14.25;;;5.60;;
40907;SDS011;51055;59.436;24.778;2022-12-18T07:28:12;13.23;;;6.25;;
40907;SDS011;51055;59.436;24.778;2022-12-18T07:30:43;14.52;;;6.22;;
40907;SDS011;51055;59.436;24.778;2022-12-18T07:33:11;15.00;;;6.30;;
40907;SDS011;51055;59.436;24.778;2022-12-18T07:35:39;14.38;;;5.80;;
40907;SDS011;51055;59.436;24.778;2022-12-18T07:38:07;11.18;;;4.53;;
40907;SDS011;51055;59.436;24.778;2022-12-18T07:40:35;14.73;;;6.45;;
40907;SDS011;51055;59.436;24.778;2022-12-18T07:43:02;18.73;;;8.80;;
40907;SDS011;51055;59.436;24.778;2022-12-18T07:45:30;15.27;;;7.63;;
40907;SDS011;51055;59.436;24.778;2022-12-18T07:47:58;12.23;;;6.07;;
40907;SDS011;51055;59.436;24.778;2022-12-18T07:50:25;15.38;;;7.53;;
40907;SDS011;51055;59.436;24.778;2022-12-18T07:52:53;13.07;;;6.35;;
40907;SDS011;51055;59.436;24.778;2022-12-18T07:55:21;14.48;;;5.95;;
40907;SDS011;51055;59.436;24.778;2022-12-18T07:57:49;12.20;;;6.03;;
40907;SDS011;51055;59.436;24.778;2022-12-18T08:00:21;15.43;;;6.70;;
40907;SDS011;51055;59.436;24.778;2022-12-18T08:02:48;21.13;;;9.27;;
40907;SDS011;51055;59.436;24.778;2022-12-18T08:05:16;17.17;;;8.75;;
40907;SDS011;51055;59.436;24.778;2022-12-18T08:07:44;15.65;;;6.60;;
40907;SDS011;51055;59.436;24.778;2022-12-18T08:10:12;17.75;;;5.40;;
40907;SDS011;51055;59.436;24.778;2022-12-18T08:12:40;13.07;;;6.15;;
40907;SDS011;51055;59.436;24.778;2022-12-18T08:15:08;11.52;;;5.82;;
40907;SDS011;51055;59.436;24.778;2022-12-18T08:17:35;14.43;;;6.57;;
40907;SDS011;51055;59.436;24.778;2022-12-18T08:20:03;14.68;;;5.88;;
40907;SDS011;51055;59.436;24.778;2022-12-18T08:22:33;13.75;;;6.38;;
40907;SDS011;51055;59.436;24.778;2022-12-18T08:25:02;16.38;;;6.72;;
40907;SDS011;51055;59.436;24.778;2022-12-18T08:27:31;17.52;;;6.60;;
40907;SDS011;51055;59.436;24.778;2022-12-18T08:30:00;10.05;;;4.63;;
40907;SDS011;51055;59.436;24.778;2022-12-18T08:32:27;15.07;;;6.18;;
40907;SDS011;51055;59.436;24.778;2022-12-18T08:34:55;12.20;;;5.80;;
40907;SDS011;51055;59.436;24.778;2022-12-18T08:37:23;15.98;;;6.80;;
40907;SDS011;51055;59.436;24.778;2022-12-18T08:39:51;14.23;;;7.18;;
40907;SDS011;51055;59.436;24.778;2022-12-18T08:42:19;13.77;;;6.72;;
40907;SDS011;51055;59.436;24.778;2022-12-18T08:45:05;15.13;;;7.85;;
40907;SDS011;51055;59.436;24.778;2022-12-18T08:47:32;16.58;;;6.55;;
40907;SDS011;51055;59.436;24.778;2022-12-18T08:50:00;17.42;;;6.63;;
40907;SDS011;51055;59.436;24.778;2022-12-18T08:52:28;10.90;;;5.30;;
40907;SDS011;51055;59.436;24.778;2022-12-18T08:54:58;14.30;;;6.85;;
40907;SDS011;51055;59.436;24.778;2022-12-18T08:57:25;14.82;;;6.57;;
40907;SDS011;51055;59.436;24.778;2022-12-18T08:59:53;18.77;;;6.72;;
40907;SDS011;51055;59.436;24.778;2022-12-18T09:02:21;14.15;;;6.60;;
40907;SDS011;51055;59.436;24.778;2022-12-18T09:04:48;17.80;;;7.35;;
40907;SDS011;51055;59.436;24.778;2022-12-18T09:07:23;14.20;;;7.05;;
40907;SDS011;51055;59.436;24.778;2022-12-18T09:09:50;18.70;;;7.50;;
40907;SDS011;51055;59.436;24.778;2022-12-18T09:12:18;14.70;;;6.80;;
40907;SDS011;51055;59.436;24.778;2022-12-18T09:14:46;15.43;;;7.15;;
40907;SDS011;51055;59.436;24.778;2022-12-18T09:17:14;16.03;;;6.53;;
40907;SDS011;51055;59.436;24.778;2022-12-18T09:19:42;15.00;;;6.88;;
40907;SDS011;51055;59.436;24.778;2022-12-18T09:22:10;16.50;;;7.55;;
40907;SDS011;51055;59.436;24.778;2022-12-18T09:24:38;13.25;;;7.00;;
40907;SDS011;51055;59.436;24.778;2022-12-18T09:27:05;18.05;;;7.43;;
40907;SDS011;51055;59.436;24.778;2022-12-18T09:29:33;17.20;;;7.45;;
40907;SDS011;51055;59.436;24.778;2022-12-18T09:32:01;19.98;;;7.20;;
40907;SDS011;51055;59.436;24.778;2022-12-18T09:34:29;16.40;;;7.25;;
40907;SDS011;51055;59.436;24.778;2022-12-18T09:36:57;17.95;;;8.13;;
40907;SDS011;51055;59.436;24.778;2022-12-18T09:39:25;14.52;;;7.53;;
40907;SDS011;51055;59.436;24.778;2022-12-18T09:41:53;12.05;;;5.75;;
40907;SDS011;51055;59.436;24.778;2022-12-18T09:44:28;16.65;;;7.65;;
40907;SDS011;51055;59.436;24.778;2022-12-18T09:49:53;18.83;;;7.88;;
40907;SDS011;51055;59.436;24.778;2022-12-18T09:52:26;18.67;;;8.23;;
40907;SDS011;51055;59.436;24.778;2022-12-18T09:57:44;19.17;;;8.60;;
40907;SDS011;51055;59.436;24.778;2022-12-18T10:00:19;17.58;;;9.65;;
40907;SDS011;51055;59.436;24.778;2022-12-18T10:02:53;19.17;;;9.70;;
40907;SDS011;51055;59.436;24.778;2022-12-18T10:05:37;21.88;;;9.30;;
40907;SDS011;51055;59.436;24.778;2022-12-18T10:22:21;26.17;;;10.77;;
40907;SDS011;51055;59.436;24.778;2022-12-18T10:25:15;21.58;;;11.30;;
40907;SDS011;51055;59.436;24.778;2022-12-18T10:27:44;21.90;;;11.18;;
40907;SDS011;51055;59.436;24.778;2022-12-18T10:30:13;23.15;;;11.50;;
40907;SDS011;51055;59.436;24.778;2022-12-18T10:32:42;18.20;;;10.02;;
40907;SDS011;51055;59.436;24.778;2022-12-18T10:35:20;24.60;;;10.33;;
40907;SDS011;51055;59.436;24.778;2022-12-18T10:40:47;21.15;;;11.05;;
40907;SDS011;51055;59.436;24.778;2022-12-18T10:43:27;28.30;;;12.73;;
40907;SDS011;51055;59.436;24.778;2022-12-18T10:46:16;37.75;;;18.95;;
40907;SDS011;51055;59.436;24.778;2022-12-18T10:53:51;25.45;;;13.07;;
40907;SDS011;51055;59.436;24.778;2022-12-18T10:56:22;26.13;;;12.18;;
40907;SDS011;51055;59.436;24.778;2022-12-18T11:01:28;21.02;;;11.20;;
40907;SDS011;51055;59.436;24.778;2022-12-18T11:04:17;20.77;;;10.07;;
40907;SDS011;51055;59.436;24.778;2022-12-18T11:07:05;20.10;;;10.77;;
40907;SDS011;51055;59.436;24.778;2022-12-18T11:09:34;19.13;;;11.25;;
40907;SDS011;51055;59.436;24.778;2022-12-18T11:12:04;23.23;;;10.65;;
40907;SDS011;51055;59.436;24.778;2022-12-18T11:14:43;24.25;;;10.68;;
40907;SDS011;51055;59.436;24.778;2022-12-18T11:17:25;16.42;;;10.05;;
40907;SDS011;51055;59.436;24.778;2022-12-18T11:20:04;21.42;;;10.90;;
40907;SDS011;51055;59.436;24.778;2022-12-18T11:22:36;22.70;;;12.07;;
40907;SDS011;51055;59.436;24.778;2022-12-18T11:25:06;24.67;;;12.00;;
40907;SDS011;51055;59.436;24.778;2022-12-18T11:28:03;24.27;;;11.73;;
40907;SDS011;51055;59.436;24.778;2022-12-18T11:30:36;23.50;;;12.60;;
40907;SDS011;51055;59.436;24.778;2022-12-18T11:35:53;24.85;;;13.20;;
40907;SDS011;51055;59.436;24.778;2022-12-18T11:41:06;22.92;;;12.23;;
40907;SDS011;51055;59.436;24.778;2022-12-18T11:43:58;22.52;;;11.20;;
40907;SDS011;51055;59.436;24.778;2022-12-18T11:46:33;20.83;;;10.90;;
40907;SDS011;51055;59.436;24.778;2022-12-18T11:49:12;25.52;;;10.68;;
40907;SDS011;51055;59.436;24.778;2022-12-18T11:51:51;18.95;;;10.43;;
40907;SDS011;51055;59.436;24.778;2022-12-18T11:54:25;22.85;;;11.18;;
40907;SDS011;51055;59.436;24.778;2022-12-18T11:56:54;22.35;;;11.30;;
40907;SDS011;51055;59.436;24.778;2022-12-18T12:10:42;20.02;;;11.48;;
40907;SDS011;51055;59.436;24.778;2022-12-18T12:13:28;24.02;;;11.77;;
40907;SDS011;51055;59.436;24.778;2022-12-18T12:16:06;20.75;;;11.00;;
40907;SDS011;51055;59.436;24.778;2022-12-18T12:18:56;27.52;;;11.43;;
40907;SDS011;51055;59.436;24.778;2022-12-18T12:21:41;24.65;;;11.38;;
40907;SDS011;51055;59.436;24.778;2022-12-18T12:32:45;25.13;;;11.98;;
40907;SDS011;51055;59.436;24.778;2022-12-18T12:35:46;25.67;;;10.68;;
40907;SDS011;51055;59.436;24.778;2022-12-18T12:41:19;20.33;;;9.75;;
40907;SDS011;51055;59.436;24.778;2022-12-18T12:44:13;17.08;;;10.38;;
40907;SDS011;51055;59.436;24.778;2022-12-18T12:46:44;21.73;;;9.82;;
40907;SDS011;51055;59.436;24.778;2022-12-18T12:49:17;19.75;;;9.48;;
40907;SDS011;51055;59.436;24.778;2022-12-18T12:51:55;21.13;;;9.93;;
40907;SDS011;51055;59.436;24.778;2022-12-18T12:54:27;19.27;;;9.60;;
40907;SDS011;51055;59.436;24.778;2022-12-18T12:57:10;24.92;;;9.90;;
40907;SDS011;51055;59.436;24.778;2022-12-18T13:02:39;19.25;;;8.65;;
40907;SDS011;51055;59.436;24.778;2022-12-18T13:08:12;23.60;;;8.95;;
40907;SDS011;51055;59.436;24.778;2022-12-18T13:10:52;17.00;;;8.50;;
40907;SDS011;51055;59.436;24.778;2022-12-18T13:16:22;18.60;;;8.65;;
40907;SDS011;51055;59.436;24.778;2022-12-18T13:18:56;19.98;;;9.55;;
40907;SDS011;51055;59.436;24.778;2022-12-18T13:24:14;19.90;;;8.30;;
40907;SDS011;51055;59.436;24.778;2022-12-18T13:26:48;22.65;;;9.15;;
40907;SDS011;51055;59.436;24.778;2022-12-18T13:32:23;16.75;;;7.80;;
40907;SDS011;51055;59.436;24.778;2022-12-18T13:37:52;14.80;;;6.93;;
40907;SDS011;51055;59.436;24.778;2022-12-18T13:43:22;18.25;;;7.55;;
40907;SDS011;51055;59.436;24.778;2022-12-18T13:46:17;20.95;;;8.05;;
40907;SDS011;51055;59.436;24.778;2022-12-18T13:48:55;15.90;;;5.97;;
40907;SDS011;51055;59.436;24.778;2022-12-18T13:51:48;13.80;;;6.68;;
40907;SDS011;51055;59.436;24.778;2022-12-18T13:57:04;13.95;;;6.53;;
40907;SDS011;51055;59.436;24.778;2022-12-18T13:59:34;17.02;;;6.88;;
40907;SDS011;51055;59.436;24.778;2022-12-18T14:02:17;19.08;;;6.88;;
40907;SDS011;51055;59.436;24.778;2022-12-18T14:04:50;16.23;;;5.28;;
40907;SDS011;51055;59.436;24.778;2022-12-18T14:07:19;16.40;;;5.85;;
40907;SDS011;51055;59.436;24.778;2022-12-18T14:09:56;14.40;;;6.22;;
40907;SDS011;51055;59.436;24.778;2022-12-18T14:12:48;18.50;;;6.25;;
40907;SDS011;51055;59.436;24.778;2022-12-18T14:17:58;16.17;;;6.68;;
40907;SDS011;51055;59.436;24.778;2022-12-18T14:20:31;13.70;;;5.80;;
40907;SDS011;51055;59.436;24.778;2022-12-18T14:23:00;13.13;;;5.35;;
40907;SDS011;51055;59.436;24.778;2022-12-18T14:25:28;11.65;;;5.82;;
40907;SDS011;51055;59.436;24.778;2022-12-18T14:30:35;15.27;;;6.40;;
40907;SDS011;51055;59.436;24.778;2022-12-18T14:35:33;17.75;;;6.65;;
40907;SDS011;51055;59.436;24.778;2022-12-18T14:40:38;15.82;;;6.80;;
40907;SDS011;51055;59.436;24.778;2022-12-18T14:43:09;15.80;;;5.95;;
40907;SDS011;51055;59.436;24.778;2022-12-18T14:45:39;16.67;;;6.40;;
40907;SDS011;51055;59.436;24.778;2022-12-18T14:48:15;16.92;;;7.55;;
40907;SDS011;51055;59.436;24.778;2022-12-18T14:53:57;10.13;;;4.97;;
40907;SDS011;51055;59.436;24.778;2022-12-18T14:56:31;15.88;;;6.45;;
40907;SDS011;51055;59.436;24.778;2022-12-18T14:59:03;13.02;;;6.60;;
40907;SDS011;51055;59.436;24.778;2022-12-18T15:01:36;14.57;;;6.80;;
40907;SDS011;51055;59.436;24.778;2022-12-18T15:04:19;13.40;;;6.80;;
40907;SDS011;51055;59.436;24.778;2022-12-18T15:07:01;14.93;;;5.97;;
40907;SDS011;51055;59.436;24.778;2022-12-18T15:09:39;9.60;;;4.95;;
40907;SDS011;51055;59.436;24.778;2022-12-18T15:20:39;12.93;;;6.32;;
40907;SDS011;51055;59.436;24.778;2022-12-18T15:33:38;19.85;;;7.82;;
40907;SDS011;51055;59.436;24.778;2022-12-18T15:36:10;15.45;;;7.05;;
40907;SDS011;51055;59.436;24.778;2022-12-18T15:38:47;14.05;;;6.53;;
40907;SDS011;51055;59.436;24.778;2022-12-18T15:41:19;15.70;;;6.53;;
40907;SDS011;51055;59.436;24.778;2022-12-18T15:43:52;14.68;;;6.35;;
40907;SDS011;51055;59.436;24.778;2022-12-18T15:46:22;13.48;;;6.55;;
40907;SDS011;51055;59.436;24.778;2022-12-18T15:48:55;13.43;;;5.72;;
40907;SDS011;51055;59.436;24.778;2022-12-18T15:51:30;16.00;;;6.60;;
40907;SDS011;51055;59.436;24.778;2022-12-18T15:54:06;11.45;;;5.07;;
40907;SDS011;51055;59.436;24.778;2022-12-18T15:56:40;9.73;;;4.63;;
40907;SDS011;51055;59.436;24.778;2022-12-18T15:59:26;9.93;;;4.90;;
40907;SDS011;51055;59.436;24.778;2022-12-18T16:01:54;12.35;;;5.35;;
40907;SDS011;51055;59.436;24.778;2022-12-18T16:04:23;10.02;;;4.68;;
40907;SDS011;51055;59.436;24.778;2022-12-18T16:06:52;14.90;;;4.90;;
40907;SDS011;51055;59.436;24.778;2022-12-18T16:09:41;11.07;;;4.60;;
40907;SDS011;51055;59.436;24.778;2022-12-18T16:12:14;7.88;;;3.67;;
40907;SDS011;51055;59.436;24.778;2022-12-18T16:14:44;11.57;;;6.00;;
40907;SDS011;51055;59.436;24.778;2022-12-18T16:17:13;12.68;;;5.53;;
40907;SDS011;51055;59.436;24.778;2022-12-18T16:19:42;11.35;;;5.35;;
40907;SDS011;51055;59.436;24.778;2022-12-18T16:22:27;11.70;;;5.72;;
40907;SDS011;51055;59.436;24.778;2022-12-18T16:24:56;13.82;;;6.38;;
40907;SDS011;51055;59.436;24.778;2022-12-18T16:27:25;13.00;;;5.95;;
40907;SDS011;51055;59.436;24.778;2022-12-18T16:29:53;10.33;;;5.83;;
40907;SDS011;51055;59.436;24.778;2022-12-18T16:32:22;15.35;;;6.45;;
40907;SDS011;51055;59.436;24.778;2022-12-18T16:34:51;13.73;;;5.82;;
40907;SDS011;51055;59.436;24.778;2022-12-18T16:37:18;14.88;;;5.85;;
40907;SDS011;51055;59.436;24.778;2022-12-18T16:39:46;19.25;;;7.00;;
40907;SDS011;51055;59.436;24.778;2022-12-18T16:42:18;13.68;;;6.20;;
40907;SDS011;51055;59.436;24.778;2022-12-18T16:44:48;15.43;;;8.45;;
40907;SDS011;51055;59.436;24.778;2022-12-18T16:47:17;14.20;;;7.10;;
40907;SDS011;51055;59.436;24.778;2022-12-18T16:52:16;17.58;;;6.93;;
40907;SDS011;51055;59.436;24.778;2022-12-18T16:54:44;9.60;;;4.88;;
40907;SDS011;51055;59.436;24.778;2022-12-18T16:57:13;12.68;;;5.78;;
40907;SDS011;51055;59.436;24.778;2022-12-18T16:59:45;12.38;;;5.90;;
40907;SDS011;51055;59.436;24.778;2022-12-18T17:02:19;12.75;;;6.22;;
40907;SDS011;51055;59.436;24.778;2022-12-18T17:04:55;15.55;;;6.03;;
40907;SDS011;51055;59.436;24.778;2022-12-18T17:07:24;17.35;;;6.65;;
40907;SDS011;51055;59.436;24.778;2022-12-18T17:09:53;9.50;;;5.00;;
40907;SDS011;51055;59.436;24.778;2022-12-18T17:12:21;15.60;;;6.68;;
40907;SDS011;51055;59.436;24.778;2022-12-18T17:14:50;13.63;;;7.32;;
40907;SDS011;51055;59.436;24.778;2022-12-18T17:17:18;11.02;;;4.82;;